createdAt,value
2022-11-29T00:00:17.029Z,8.20
2022-11-29T00:02:46.460Z,8.10
2022-11-29T00:05:16.331Z,8.20
2022-11-29T00:07:45.307Z,8.20
2022-11-29T00:10:13.990Z,8.10
2022-11-29T00:12:43.397Z,8.10
2022-11-29T00:15:12.167Z,8.10
2022-11-29T00:17:40.794Z,8.20
2022-11-29T00:20:11.262Z,8.10
2022-11-29T00:22:41.275Z,8.10
2022-11-29T00:25:10.770Z,8.20
2022-11-29T00:27:40.196Z,8.10
2022-11-29T00:30:10.994Z,8.10
2022-11-29T00:32:40.563Z,8.10
2022-11-29T00:35:11.560Z,8.00
2022-11-29T00:37:40.981Z,8.00
2022-11-29T00:40:10.749Z,8.00
2022-11-29T00:42:40.266Z,8.00
2022-11-29T00:45:10.127Z,8.00
2022-11-29T00:47:39.761Z,8.00
2022-11-29T00:50:09.554Z,8.00
2022-11-29T00:52:38.974Z,8.00
2022-11-29T00:55:11.137Z,8.00
2022-11-29T00:57:40.555Z,8.00
2022-11-29T01:00:12.665Z,8.00
2022-11-29T01:02:42.138Z,8.10
2022-11-29T01:05:11.623Z,8.00
2022-11-29T01:07:41.153Z,8.10
2022-11-29T01:10:10.998Z,8.00
2022-11-29T01:12:41.645Z,8.10
2022-11-29T01:15:12.033Z,8.10
2022-11-29T01:17:41.782Z,8.00
2022-11-29T01:20:14.375Z,8.00
2022-11-29T01:22:43.488Z,8.00
2022-11-29T01:25:12.921Z,8.00
2022-11-29T01:27:43.708Z,8.00
2022-11-29T01:30:13.582Z,8.10
2022-11-29T01:32:42.233Z,8.00
2022-11-29T01:35:11.658Z,8.00
2022-11-29T01:37:41.105Z,8.10
2022-11-29T01:40:10.766Z,8.00
2022-11-29T01:42:40.206Z,8.10
2022-11-29T01:45:15.518Z,8.10
2022-11-29T01:47:47.767Z,8.00
2022-11-29T01:50:18.443Z,8.00
2022-11-29T01:52:48.649Z,8.00
2022-11-29T01:55:18.906Z,8.00
2022-11-29T01:57:48.809Z,8.00
2022-11-29T02:00:20.299Z,8.00
2022-11-29T02:02:55.621Z,8.00
2022-11-29T02:05:27.575Z,8.00
2022-11-29T02:07:59.801Z,8.00
2022-11-29T02:10:46.434Z,8.00
2022-11-29T02:13:44.641Z,8.00
2022-11-29T02:16:28.938Z,7.90
2022-11-29T02:19:04.114Z,8.00
2022-11-29T02:21:36.613Z,7.90
2022-11-29T02:24:33.049Z,7.90
2022-11-29T02:27:28.055Z,7.90
2022-11-29T02:30:23.246Z,7.90
2022-11-29T02:32:58.394Z,8.00
2022-11-29T02:35:30.951Z,7.90
2022-11-29T02:38:19.282Z,7.90
2022-11-29T02:40:55.644Z,8.00
2022-11-29T02:43:34.889Z,8.10
2022-11-29T02:46:20.078Z,8.10
2022-11-29T02:48:50.317Z,8.00
2022-11-29T02:51:20.398Z,8.10
2022-11-29T02:53:53.441Z,8.00
2022-11-29T02:56:23.572Z,8.10
2022-11-29T02:58:53.723Z,8.00
2022-11-29T03:01:26.229Z,8.00
2022-11-29T03:04:04.900Z,8.00
2022-11-29T03:06:58.763Z,8.00
2022-11-29T03:09:36.804Z,8.00
2022-11-29T03:12:21.230Z,8.00
2022-11-29T03:15:02.630Z,8.00
2022-11-29T03:17:41.324Z,7.90
2022-11-29T03:20:22.456Z,7.90
2022-11-29T03:25:51.363Z,7.90
2022-11-29T03:28:29.518Z,7.90
2022-11-29T03:31:08.060Z,7.80
2022-11-29T03:33:49.713Z,7.80
2022-11-29T03:36:51.219Z,7.80
2022-11-29T03:39:23.719Z,7.90
2022-11-29T03:42:02.257Z,7.90
2022-11-29T03:44:37.671Z,7.90
2022-11-29T03:47:16.032Z,7.90
2022-11-29T03:49:48.524Z,8.00
2022-11-29T03:52:35.862Z,8.00
2022-11-29T03:55:11.130Z,8.00
2022-11-29T03:57:43.662Z,8.00
2022-11-29T04:00:13.706Z,8.00
2022-11-29T04:03:18.262Z,8.00
2022-11-29T04:06:14.784Z,8.00
2022-11-29T04:08:53.155Z,8.10
2022-11-29T04:11:46.870Z,8.10
2022-11-29T04:14:35.818Z,8.10
2022-11-29T04:17:32.104Z,8.10
2022-11-29T04:20:27.361Z,8.10
2022-11-29T04:23:30.068Z,8.10
2022-11-29T04:26:35.009Z,8.10
2022-11-29T04:29:31.506Z,8.20
2022-11-29T04:32:10.014Z,8.20
2022-11-29T04:35:02.198Z,8.10
2022-11-29T04:37:57.486Z,8.20
2022-11-29T04:40:35.804Z,8.10
2022-11-29T04:43:25.746Z,8.10
2022-11-29T04:46:07.356Z,8.20
2022-11-29T04:49:00.094Z,8.20
2022-11-29T04:51:56.969Z,8.20
2022-11-29T04:54:50.277Z,8.20
2022-11-29T04:57:43.738Z,8.20
2022-11-29T05:00:19.002Z,8.20
2022-11-29T05:02:51.562Z,8.20
2022-11-29T05:05:54.487Z,8.20
2022-11-29T05:08:35.774Z,8.20
2022-11-29T05:11:26.685Z,8.20
2022-11-29T05:14:03.408Z,8.30
2022-11-29T05:16:50.729Z,8.20
2022-11-29T05:19:51.804Z,8.20
2022-11-29T05:22:35.960Z,8.20
2022-11-29T05:25:23.724Z,8.20
2022-11-29T05:27:58.738Z,8.10
2022-11-29T05:30:31.303Z,8.10
2022-11-29T05:33:18.940Z,8.10
2022-11-29T05:35:56.549Z,8.10
2022-11-29T05:39:02.475Z,8.10
2022-11-29T05:41:37.380Z,8.10
2022-11-29T05:44:18.670Z,8.10
2022-11-29T05:47:00.358Z,8.10
2022-11-29T05:49:52.257Z,8.10
2022-11-29T05:52:47.242Z,8.20
2022-11-29T05:55:20.316Z,8.10
2022-11-29T05:57:56.457Z,8.20
2022-11-29T06:00:28.924Z,8.10
2022-11-29T06:03:04.186Z,8.20
2022-11-29T06:05:39.539Z,8.10
2022-11-29T06:08:28.514Z,8.20
2022-11-29T06:11:01.055Z,8.20
2022-11-29T06:13:53.570Z,8.20
2022-11-29T06:16:57.940Z,8.20
2022-11-29T06:19:37.558Z,8.20
2022-11-29T06:22:26.527Z,8.30
2022-11-29T06:25:32.591Z,8.20
2022-11-29T06:28:17.498Z,8.30
2022-11-29T06:31:00.696Z,8.30
2022-11-29T06:33:30.898Z,8.30
2022-11-29T06:36:05.824Z,8.30
2022-11-29T06:38:35.845Z,8.30
2022-11-29T06:41:05.681Z,8.30
2022-11-29T06:43:35.341Z,8.30
2022-11-29T06:46:07.866Z,8.30
2022-11-29T06:48:50.382Z,8.40
2022-11-29T06:51:46.485Z,8.40
2022-11-29T06:54:28.038Z,8.40
2022-11-29T06:57:03.424Z,8.40
2022-11-29T06:59:56.601Z,8.50
2022-11-29T07:02:46.888Z,8.50
2022-11-29T07:05:28.447Z,8.40
2022-11-29T07:08:02.124Z,8.50
2022-11-29T07:10:34.662Z,8.50
2022-11-29T07:13:04.410Z,8.50
2022-11-29T07:15:34.170Z,8.50
2022-11-29T07:18:30.714Z,8.50
2022-11-29T07:21:18.118Z,8.60
2022-11-29T07:23:51.165Z,8.60
2022-11-29T07:26:26.995Z,8.60
2022-11-29T07:29:27.696Z,8.60
2022-11-29T07:32:34.707Z,8.60
2022-11-29T07:35:07.211Z,8.70
2022-11-29T07:38:12.905Z,8.60
2022-11-29T07:41:03.616Z,8.70
2022-11-29T07:43:47.675Z,8.70
2022-11-29T07:46:17.919Z,8.70
2022-11-29T07:48:47.377Z,8.80
2022-11-29T07:51:16.898Z,8.80
2022-11-29T07:53:46.719Z,8.70
2022-11-29T07:56:18.012Z,8.80
2022-11-29T07:58:47.583Z,8.80
2022-11-29T08:01:17.088Z,8.90
2022-11-29T08:03:46.689Z,8.90
2022-11-29T08:06:16.107Z,8.80
2022-11-29T08:08:45.535Z,8.90
2022-11-29T08:11:16.226Z,8.90
2022-11-29T08:13:45.810Z,9.00
2022-11-29T08:16:19.851Z,8.90
2022-11-29T08:18:49.407Z,9.10
2022-11-29T08:21:19.077Z,9.10
2022-11-29T08:23:50.620Z,9.10
2022-11-29T08:26:24.454Z,9.10
2022-11-29T08:28:53.994Z,9.10
2022-11-29T08:31:23.507Z,9.20
2022-11-29T08:33:52.956Z,9.20
2022-11-29T08:36:22.462Z,9.30
2022-11-29T08:38:57.795Z,9.20
2022-11-29T08:41:23.246Z,9.30
2022-11-29T08:43:52.719Z,9.30
2022-11-29T08:46:22.157Z,9.30
2022-11-29T08:48:51.558Z,9.30
2022-11-29T08:51:21.069Z,9.30
2022-11-29T08:53:52.141Z,9.40
2022-11-29T08:57:10.318Z,9.40
2022-11-29T08:58:52.736Z,9.50
2022-11-29T09:01:22.298Z,9.60
2022-11-29T09:04:02.487Z,9.70
2022-11-29T09:06:35.082Z,9.70
2022-11-29T09:09:05.039Z,9.80
2022-11-29T09:11:36.126Z,9.70
2022-11-29T09:14:08.357Z,9.70
2022-11-29T09:16:39.440Z,9.80
2022-11-29T09:19:09.581Z,9.80
2022-11-29T09:21:39.012Z,9.80
2022-11-29T09:24:09.534Z,9.70
2022-11-29T09:26:40.904Z,9.70
2022-11-29T09:29:11.755Z,9.70
2022-11-29T09:31:43.462Z,9.70
2022-11-29T09:34:18.918Z,9.70
2022-11-29T09:36:48.683Z,9.80
2022-11-29T09:39:18.171Z,9.80
2022-11-29T09:42:05.949Z,10.00
2022-11-29T09:45:10.517Z,10.00
2022-11-29T09:48:14.366Z,10.00
2022-11-29T09:50:47.556Z,10.00
2022-11-29T09:53:38.217Z,10.20
2022-11-29T09:56:16.568Z,10.30
2022-11-29T09:58:58.089Z,10.30
2022-11-29T10:01:43.097Z,10.30
2022-11-29T10:04:21.749Z,10.50
2022-11-29T10:06:57.299Z,10.60
2022-11-29T10:09:38.786Z,10.50
2022-11-29T10:12:21.686Z,10.70
2022-11-29T10:14:54.797Z,11.00
2022-11-29T10:17:27.296Z,11.10
2022-11-29T10:20:03.404Z,11.00
2022-11-29T10:22:35.906Z,11.10
2022-11-29T10:25:08.675Z,11.10
2022-11-29T10:27:41.343Z,11.10
2022-11-29T10:30:17.234Z,11.20
2022-11-29T10:32:49.533Z,11.40
2022-11-29T10:35:21.291Z,11.40
2022-11-29T10:38:28.621Z,11.50
2022-11-29T10:40:28.022Z,11.60
2022-11-29T10:42:59.088Z,11.80
2022-11-29T10:45:50.086Z,11.60
2022-11-29T10:48:22.062Z,11.40
2022-11-29T10:50:54.134Z,11.40
2022-11-29T10:53:26.356Z,11.40
2022-11-29T10:55:58.934Z,11.50
2022-11-29T10:58:31.170Z,11.70
2022-11-29T11:01:07.928Z,11.80
2022-11-29T11:03:40.767Z,11.80
2022-11-29T11:06:28.455Z,11.70
2022-11-29T11:09:00.938Z,11.70
2022-11-29T11:11:33.088Z,11.60
2022-11-29T11:14:24.549Z,11.60
2022-11-29T11:16:55.421Z,11.70
2022-11-29T11:19:31.818Z,12.00
2022-11-29T11:22:04.318Z,12.30
2022-11-29T11:24:43.613Z,12.40
2022-11-29T11:27:14.558Z,12.60
2022-11-29T11:29:47.596Z,12.60
2022-11-29T11:32:18.279Z,12.60
2022-11-29T11:34:55.992Z,12.50
2022-11-29T11:37:31.288Z,12.40
2022-11-29T11:40:03.893Z,12.60
2022-11-29T11:42:37.415Z,12.40
2022-11-29T11:45:16.172Z,12.30
2022-11-29T11:47:49.106Z,12.20
2022-11-29T11:50:30.796Z,12.10
2022-11-29T11:53:03.374Z,12.10
2022-11-29T11:55:41.515Z,12.20
2022-11-29T11:58:16.962Z,12.60
2022-11-29T12:01:05.730Z,13.00
2022-11-29T12:03:32.474Z,13.00
2022-11-29T12:06:14.038Z,13.10
2022-11-29T12:08:46.312Z,13.10
2022-11-29T12:11:19.251Z,13.20
2022-11-29T12:13:51.731Z,13.10
2022-11-29T12:16:33.285Z,13.10
2022-11-29T12:19:15.586Z,13.10
2022-11-29T12:21:49.914Z,13.00
2022-11-29T12:24:25.386Z,12.50
2022-11-29T12:26:58.549Z,12.10
2022-11-29T12:29:31.366Z,12.10
2022-11-29T12:32:06.862Z,11.90
2022-11-29T12:34:55.985Z,11.90
2022-11-29T12:37:44.305Z,11.70
2022-11-29T12:40:33.363Z,11.60
2022-11-29T12:43:22.346Z,11.50
2022-11-29T12:46:11.323Z,11.40
2022-11-29T12:48:49.765Z,11.30
2022-11-29T12:51:41.939Z,11.30
2022-11-29T12:54:20.015Z,11.30
2022-11-29T12:56:58.248Z,11.20
2022-11-29T12:59:39.823Z,11.20
2022-11-29T13:02:15.165Z,11.10
2022-11-29T13:04:55.014Z,11.10
2022-11-29T13:07:45.139Z,11.00
2022-11-29T13:10:29.905Z,11.20
2022-11-29T13:13:17.420Z,11.20
2022-11-29T13:16:04.933Z,11.30
2022-11-29T13:18:37.570Z,11.30
2022-11-29T13:21:19.334Z,11.30
2022-11-29T13:24:10.525Z,11.20
2022-11-29T13:26:28.095Z,11.20
2022-11-29T13:28:59.810Z,11.20
2022-11-29T13:31:31.336Z,11.20
2022-11-29T13:34:29.660Z,11.20
2022-11-29T13:37:16.919Z,11.20
2022-11-29T13:39:58.160Z,11.20
2022-11-29T13:42:36.543Z,10.90
2022-11-29T13:45:21.082Z,10.70
2022-11-29T13:48:02.031Z,10.70
2022-11-29T13:50:49.329Z,10.70
2022-11-29T13:53:24.664Z,10.70
2022-11-29T13:56:02.905Z,10.70
2022-11-29T13:58:35.433Z,10.80
2022-11-29T14:01:15.853Z,10.80
2022-11-29T14:03:52.438Z,10.90
2022-11-29T14:06:37.296Z,10.90
2022-11-29T14:09:25.589Z,10.90
2022-11-29T14:12:31.279Z,10.80
2022-11-29T14:15:16.250Z,10.90
2022-11-29T14:17:54.801Z,11.00
2022-11-29T14:20:29.015Z,11.00
2022-11-29T14:23:08.836Z,11.00
2022-11-29T14:25:51.542Z,11.00
2022-11-29T14:28:17.629Z,10.90
2022-11-29T14:30:52.420Z,10.90
2022-11-29T14:33:49.187Z,10.90
2022-11-29T14:36:30.620Z,10.90
2022-11-29T14:39:20.004Z,10.90
2022-11-29T14:42:16.342Z,10.80
2022-11-29T14:44:54.715Z,10.70
2022-11-29T14:47:39.617Z,10.80
2022-11-29T14:50:11.370Z,10.80
2022-11-29T14:52:52.820Z,10.80
2022-11-29T14:55:29.770Z,10.80
2022-11-29T14:58:06.424Z,10.90
2022-11-29T15:00:50.709Z,10.80
2022-11-29T15:03:41.661Z,10.80
2022-11-29T15:06:20.062Z,10.70
2022-11-29T15:08:58.563Z,10.60
2022-11-29T15:11:37.153Z,10.50
2022-11-29T15:14:09.697Z,10.50
2022-11-29T15:16:45.190Z,10.50
2022-11-29T15:19:33.943Z,10.50
2022-11-29T15:22:07.617Z,10.40
2022-11-29T15:24:57.417Z,10.40
2022-11-29T15:27:27.643Z,10.40
2022-11-29T15:29:59.232Z,10.50
2022-11-29T15:32:32.929Z,10.50
2022-11-29T15:35:02.528Z,10.60
2022-11-29T15:37:42.885Z,10.60
2022-11-29T15:40:21.981Z,10.60
2022-11-29T15:42:54.470Z,10.60
2022-11-29T15:45:29.580Z,10.50
2022-11-29T15:48:28.364Z,10.50
2022-11-29T15:51:21.876Z,10.40
2022-11-29T15:54:13.047Z,10.30
2022-11-29T15:56:46.063Z,10.20
2022-11-29T15:59:35.545Z,10.10
2022-11-29T16:02:08.223Z,10.10
2022-11-29T16:04:43.580Z,10.00
2022-11-29T16:07:10.564Z,10.00
2022-11-29T16:09:43.776Z,9.90
2022-11-29T16:12:16.301Z,9.80
2022-11-29T16:14:56.510Z,9.80
2022-11-29T16:17:32.000Z,9.70
2022-11-29T16:20:19.936Z,9.70
2022-11-29T16:23:04.641Z,9.60
2022-11-29T16:25:37.749Z,9.60
2022-11-29T16:28:09.272Z,9.60
2022-11-29T16:30:42.648Z,9.50
2022-11-29T16:33:15.237Z,9.50
2022-11-29T16:35:44.753Z,9.50
2022-11-29T16:38:19.886Z,9.50
2022-11-29T16:41:10.570Z,9.50
2022-11-29T16:43:55.186Z,9.40
2022-11-29T16:46:27.757Z,9.40
2022-11-29T16:49:01.370Z,9.40
2022-11-29T16:51:39.889Z,9.30
2022-11-29T16:54:22.363Z,9.30
2022-11-29T16:56:57.327Z,9.30
2022-11-29T16:59:28.603Z,9.20
2022-11-29T17:01:59.060Z,9.20
2022-11-29T17:04:28.583Z,9.20
2022-11-29T17:07:00.145Z,9.10
2022-11-29T17:09:33.238Z,9.10
2022-11-29T17:12:04.233Z,9.10
2022-11-29T17:14:33.890Z,9.10
2022-11-29T17:17:03.596Z,9.10
2022-11-29T17:19:33.368Z,9.00
2022-11-29T17:22:03.087Z,9.00
2022-11-29T17:24:32.834Z,8.90
2022-11-29T17:27:02.505Z,9.00
2022-11-29T17:29:32.029Z,9.00
2022-11-29T17:32:01.646Z,9.00
2022-11-29T17:34:31.195Z,8.90
2022-11-29T17:37:00.697Z,8.90
2022-11-29T17:39:30.329Z,8.90
2022-11-29T17:41:59.947Z,8.80
2022-11-29T17:44:29.378Z,8.70
2022-11-29T17:46:58.869Z,8.70
2022-11-29T17:49:28.330Z,8.70
2022-11-29T17:51:57.874Z,8.70
2022-11-29T17:54:27.315Z,8.70
2022-11-29T17:56:56.832Z,8.50
2022-11-29T17:59:26.445Z,8.60
2022-11-29T18:01:56.069Z,8.60
2022-11-29T18:04:25.629Z,8.50
2022-11-29T18:06:55.329Z,8.40
2022-11-29T18:09:24.865Z,8.40
2022-11-29T18:11:54.354Z,8.40
2022-11-29T18:14:26.176Z,8.30
2022-11-29T18:16:55.872Z,8.30
2022-11-29T18:19:25.514Z,8.20
2022-11-29T18:21:55.050Z,8.30
2022-11-29T18:24:24.552Z,8.30
2022-11-29T18:26:56.932Z,8.30
2022-11-29T18:29:26.441Z,8.30
2022-11-29T18:31:55.867Z,8.30
2022-11-29T18:34:25.327Z,8.20
2022-11-29T18:36:54.760Z,8.20
2022-11-29T18:39:25.915Z,8.20
2022-11-29T18:41:55.343Z,8.30
2022-11-29T18:44:26.493Z,8.20
2022-11-29T18:46:57.265Z,8.30
2022-11-29T18:49:26.799Z,8.20
2022-11-29T18:51:56.302Z,8.20
2022-11-29T18:54:25.793Z,8.20
2022-11-29T18:56:55.268Z,8.20
2022-11-29T18:59:24.690Z,8.10
2022-11-29T19:01:54.164Z,8.10
2022-11-29T19:04:23.830Z,8.00
2022-11-29T19:06:53.259Z,8.00
2022-11-29T19:09:23.884Z,8.00
2022-11-29T19:11:53.375Z,8.00
2022-11-29T19:14:22.813Z,7.90
2022-11-29T19:16:52.246Z,7.90
2022-11-29T19:19:21.686Z,7.90
2022-11-29T19:21:51.121Z,7.90
2022-11-29T19:24:20.712Z,7.80
2022-11-29T19:26:53.671Z,7.80
2022-11-29T19:29:23.243Z,7.80
2022-11-29T19:31:52.669Z,7.80
2022-11-29T19:34:22.133Z,7.70
2022-11-29T19:36:51.596Z,7.70
2022-11-29T19:39:20.999Z,7.70
2022-11-29T19:41:50.642Z,7.70
2022-11-29T19:44:22.046Z,7.60
2022-11-29T19:46:51.302Z,7.70
2022-11-29T19:49:20.739Z,7.60
2022-11-29T19:51:50.161Z,7.60
2022-11-29T19:54:19.606Z,7.50
2022-11-29T19:56:49.176Z,7.30
2022-11-29T19:59:18.746Z,7.30
2022-11-29T20:01:48.205Z,7.40
2022-11-29T20:04:17.859Z,7.30
2022-11-29T20:06:47.556Z,7.20
2022-11-29T20:09:17.169Z,7.20
2022-11-29T20:11:46.657Z,7.10
2022-11-29T20:14:17.355Z,7.00
2022-11-29T20:16:46.917Z,7.00
2022-11-29T20:19:18.680Z,7.10
2022-11-29T20:21:50.061Z,7.10
2022-11-29T20:24:19.574Z,7.10
2022-11-29T20:26:50.651Z,7.10
2022-11-29T20:29:21.789Z,7.20
2022-11-29T20:31:51.553Z,6.90
2022-11-29T20:34:22.439Z,6.90
2022-11-29T20:37:05.747Z,7.00
2022-11-29T20:39:44.530Z,6.90
2022-11-29T20:42:34.174Z,6.90
2022-11-29T20:45:06.774Z,7.00
2022-11-29T20:47:45.256Z,6.60
2022-11-29T20:50:23.559Z,6.70
2022-11-29T20:53:06.493Z,6.90
2022-11-29T20:55:37.647Z,6.90
2022-11-29T20:58:08.006Z,6.90
2022-11-29T21:00:37.431Z,6.90
2022-11-29T21:03:06.934Z,6.90
2022-11-29T21:05:39.395Z,6.90
2022-11-29T21:08:08.148Z,6.90
2022-11-29T21:10:37.633Z,6.70
2022-11-29T21:13:07.546Z,6.70
2022-11-29T21:15:37.213Z,6.50
2022-11-29T21:18:07.033Z,6.50
2022-11-29T21:20:36.622Z,6.40
2022-11-29T21:23:21.125Z,6.40
2022-11-29T21:25:56.583Z,6.50
2022-11-29T21:28:31.855Z,6.60
2022-11-29T21:31:01.704Z,6.60
2022-11-29T21:33:31.681Z,6.60
2022-11-29T21:36:02.401Z,6.70
2022-11-29T21:38:31.837Z,6.60
2022-11-29T21:41:01.342Z,6.50
2022-11-29T21:44:04.264Z,6.50
2022-11-29T21:46:02.006Z,6.50
2022-11-29T21:48:38.379Z,6.30
2022-11-29T21:51:09.377Z,6.50
2022-11-29T21:53:40.830Z,6.50
2022-11-29T21:56:12.362Z,6.60
2022-11-29T21:58:41.847Z,6.50
2022-11-29T22:01:17.418Z,6.50
2022-11-29T22:03:48.715Z,6.60
2022-11-29T22:06:20.490Z,6.60
2022-11-29T22:08:50.126Z,6.50
2022-11-29T22:11:32.147Z,6.30
2022-11-29T22:14:14.126Z,6.30
2022-11-29T22:16:49.010Z,5.90
2022-11-29T22:19:23.830Z,5.40
2022-11-29T22:21:55.451Z,5.50
2022-11-29T22:24:27.397Z,5.90
2022-11-29T22:26:59.722Z,5.90
2022-11-29T22:29:28.959Z,6.10
2022-11-29T22:31:59.515Z,6.00
2022-11-29T22:34:30.083Z,6.00
2022-11-29T22:36:59.694Z,6.00
2022-11-29T22:39:29.124Z,6.20
2022-11-29T22:41:58.547Z,6.20
2022-11-29T22:44:28.095Z,6.10
2022-11-29T22:46:57.724Z,6.00
2022-11-29T22:49:27.289Z,6.10
2022-11-29T22:51:56.768Z,6.10
2022-11-29T22:54:26.202Z,5.60
2022-11-29T22:56:56.354Z,5.30
2022-11-29T22:59:25.783Z,5.70
2022-11-29T23:01:55.240Z,5.80
2022-11-29T23:04:25.079Z,5.70
2022-11-29T23:06:55.399Z,5.80
2022-11-29T23:09:24.831Z,5.90
2022-11-29T23:11:56.530Z,5.90
2022-11-29T23:14:26.488Z,5.90
2022-11-29T23:16:56.039Z,5.80
2022-11-29T23:19:25.537Z,5.80
2022-11-29T23:21:56.662Z,5.80
2022-11-29T23:24:26.471Z,5.70
2022-11-29T23:26:55.958Z,5.20
2022-11-29T23:29:25.403Z,5.20
2022-11-29T23:31:55.076Z,5.40
2022-11-29T23:34:24.602Z,5.60
2022-11-29T23:36:54.110Z,5.70
2022-11-29T23:39:23.592Z,5.70
2022-11-29T23:41:53.029Z,5.70
2022-11-29T23:44:22.454Z,5.70
2022-11-29T23:46:51.952Z,5.70
2022-11-29T23:49:21.380Z,5.60
2022-11-29T23:51:50.815Z,5.50
2022-11-29T23:54:20.281Z,5.40
2022-11-29T23:56:49.716Z,5.30
2022-11-29T23:59:20.613Z,5.30
